Time;durP1;ratioP1;P1;durP2;ratioP2;P2;SDS_P1;SDS_P2;PMS_P1;PMS_P2;Temp;Humidity;BMP_temperature;BMP_pressure;BME280_temperature;BME280_humidity;BME280_pressure;Samples;Min_cycle;Max_cycle;Signal;HPM_P1;HPM_P2
2023/06/17 00:02:03;;;;;;;;;;;16.30;93.00;;;;;;5133303;27;19911;-44
2023/06/17 00:04:29;;;;;;;;;;;16.10;95.80;;;;;;5133608;27;20010;-41
2023/06/17 00:06:54;;;;;;;;;;;15.90;95.90;;;;;;5133672;27;19960;-43
2023/06/17 00:09:20;;;;;;;;;;;15.80;97.70;;;;;;5132597;27;20325;-43
2023/06/17 00:11:46;;;;;;;;;;;15.70;98.90;;;;;;5133900;27;19994;-43
2023/06/17 00:14:11;;;;;;;;;;;15.70;98.40;;;;;;5133867;27;19908;-42
2023/06/17 00:16:37;;;;;;;;;;;15.90;97.20;;;;;;5132611;27;20390;-42
2023/06/17 00:19:03;;;;;;;;;;;16.00;96.80;;;;;;5133784;27;20350;-42
2023/06/17 00:21:28;;;;;;;;;;;16.10;97.00;;;;;;5133022;27;19942;-44
2023/06/17 00:23:54;;;;;;;;;;;16.30;97.50;;;;;;5132767;27;20282;-43
2023/06/17 00:26:19;;;;;;;;;;;16.30;97.30;;;;;;5133280;27;19914;-43
2023/06/17 00:28:45;;;;;;;;;;;16.40;97.00;;;;;;5133559;27;19907;-44
2023/06/17 00:31:10;;;;;;;;;;;16.40;96.00;;;;;;5132489;27;19911;-43
2023/06/17 00:33:36;;;;;;;;;;;16.40;96.30;;;;;;5133188;27;20402;-43
2023/06/17 00:36:02;;;;;;;;;;;16.40;95.90;;;;;;5133217;27;20370;-43
2023/06/17 00:38:28;;;;;;;;;;;16.40;96.50;;;;;;5132373;27;19939;-44
2023/06/17 00:40:53;;;;;;;;;;;16.50;97.60;;;;;;5133332;27;19965;-44
2023/06/17 00:43:18;;;;;;;;;;;16.60;97.80;;;;;;5133040;27;19961;-42
2023/06/17 00:45:44;;;;;;;;;;;16.70;97.50;;;;;;5132506;27;20333;-45
2023/06/17 00:48:10;;;;;;;;;;;16.60;99.20;;;;;;5132624;27;19907;-42
2023/06/17 00:50:36;;;;;;;;;;;16.70;99.30;;;;;;5132876;27;19911;-42
2023/06/17 00:53:02;;;;;;;;;;;16.80;99.40;;;;;;5132520;27;19968;-45
2023/06/17 00:55:27;;;;;;;;;;;16.90;99.80;;;;;;5132809;27;20254;-42
2023/06/17 00:57:53;;;;;;;;;;;16.90;99.90;;;;;;5133162;27;19915;-45
2023/06/17 01:00:19;;;;;;;;;;;16.90;99.90;;;;;;5131778;27;19911;-43
2023/06/17 01:02:46;;;;;;;;;;;16.90;99.90;;;;;;5133014;27;19908;-43
2023/06/17 01:05:12;;;;;;;;;;;16.90;99.90;;;;;;5132222;28;19915;-43
2023/06/17 01:07:45;;;;;;;;;;;16.90;99.90;;;;;;5132738;28;19908;-43
2023/06/17 01:10:27;;;;;;;;;;;16.80;99.90;;;;;;5132757;28;19912;-42
2023/06/17 01:12:54;;;;;;;;;;;16.70;99.90;;;;;;5132363;28;20305;-44
2023/06/17 01:15:21;;;;;;;;;;;16.70;99.90;;;;;;5132791;28;19907;-42
2023/06/17 01:17:47;;;;;;;;;;;16.70;99.90;;;;;;5132860;28;19907;-44
2023/06/17 01:20:13;;;;;;;;;;;16.80;99.90;;;;;;5132139;28;19907;-44
2023/06/17 01:22:39;;;;;;;;;;;16.80;99.90;;;;;;5132548;28;19915;-42
2023/06/17 01:25:06;;;;;;;;;;;16.90;99.90;;;;;;5132887;28;20003;-42
2023/06/17 01:27:33;;;;;;;;;;;16.90;99.90;;;;;;5131808;28;19914;-43
2023/06/17 01:29:59;;;;;;;;;;;16.90;99.90;;;;;;5132542;28;20282;-42
2023/06/17 01:32:24;;;;;;;;;;;16.90;99.90;;;;;;5132531;28;19917;-42
2023/06/17 01:34:50;;;;;;;;;;;16.90;99.90;;;;;;5132043;28;19918;-43
2023/06/17 01:37:20;;;;;;;;;;;16.90;99.90;;;;;;5132148;28;19920;-49
2023/06/17 01:39:47;;;;;;;;;;;16.80;99.90;;;;;;5132717;28;19907;-42
2023/06/17 01:42:24;;;;;;;;;;;16.80;99.90;;;;;;5132152;28;19927;-47
2023/06/17 01:44:50;;;;;;;;;;;16.80;99.90;;;;;;5132620;28;19915;-43
2023/06/17 01:47:15;;;;;;;;;;;16.90;99.90;;;;;;5132227;28;19907;-45
2023/06/17 01:49:41;;;;;;;;;;;16.80;99.90;;;;;;5132354;28;19908;-42
2023/06/17 01:52:09;;;;;;;;;;;16.80;99.90;;;;;;5132752;28;19908;-45
2023/06/17 01:54:35;;;;;;;;;;;16.70;99.90;;;;;;5131486;28;19927;-45
2023/06/17 01:57:00;;;;;;;;;;;16.90;99.90;;;;;;5132212;28;19912;-43
2023/06/17 01:59:26;;;;;;;;;;;16.90;99.90;;;;;;5133424;27;19994;-42
2023/06/17 02:01:51;;;;;;;;;;;16.90;99.90;;;;;;5135551;27;19915;-43
2023/06/17 02:04:17;;;;;;;;;;;16.80;99.90;;;;;;5135895;27;19915;-44
2023/06/17 02:06:42;;;;;;;;;;;16.70;99.90;;;;;;5136547;27;19908;-42
2023/06/17 02:09:08;;;;;;;;;;;16.80;99.90;;;;;;5135615;27;19914;-42
2023/06/17 02:11:34;;;;;;;;;;;16.80;99.90;;;;;;5135984;27;19915;-44
2023/06/17 02:13:59;;;;;;;;;;;16.70;99.90;;;;;;5136222;27;19907;-42
2023/06/17 02:16:25;;;;;;;;;;;16.80;99.90;;;;;;5135119;27;19912;-45
2023/06/17 02:18:54;;;;;;;;;;;16.80;99.90;;;;;;5136092;27;19950;-43
2023/06/17 02:21:20;;;;;;;;;;;16.90;99.90;;;;;;5135653;27;19929;-42
2023/06/17 02:23:49;;;;;;;;;;;16.80;99.90;;;;;;5135201;27;20366;-43
2023/06/17 02:26:16;;;;;;;;;;;16.90;99.90;;;;;;5135580;27;19927;-48
2023/06/17 02:28:42;;;;;;;;;;;16.90;99.90;;;;;;5135796;27;19908;-43
2023/06/17 02:31:08;;;;;;;;;;;16.90;99.90;;;;;;5135163;27;20013;-44
2023/06/17 02:33:34;;;;;;;;;;;16.90;99.90;;;;;;5135322;27;19912;-42
2023/06/17 02:35:59;;;;;;;;;;;17.00;99.90;;;;;;5135595;27;19907;-44
2023/06/17 02:38:25;;;;;;;;;;;17.00;99.90;;;;;;5134733;27;19907;-42
2023/06/17 02:40:50;;;;;;;;;;;17.00;99.90;;;;;;5135628;27;19935;-43
2023/06/17 02:43:16;;;;;;;;;;;17.00;99.90;;;;;;5135175;27;20317;-46
2023/06/17 02:45:41;;;;;;;;;;;17.00;99.90;;;;;;5135010;27;19972;-45
2023/06/17 02:48:06;;;;;;;;;;;17.00;99.90;;;;;;5135512;27;19908;-46
2023/06/17 02:50:32;;;;;;;;;;;17.00;99.90;;;;;;5135057;27;20293;-45
2023/06/17 02:52:57;;;;;;;;;;;16.90;99.90;;;;;;5134785;27;20006;-43
2023/06/17 02:55:25;;;;;;;;;;;16.80;99.90;;;;;;5134841;27;20151;-44
2023/06/17 02:57:50;;;;;;;;;;;16.60;99.90;;;;;;5134533;27;19918;-42
2023/06/17 03:00:16;;;;;;;;;;;16.60;99.90;;;;;;5134912;27;19907;-44
2023/06/17 03:02:42;;;;;;;;;;;16.60;99.90;;;;;;5135159;27;19911;-43
2023/06/17 03:05:07;;;;;;;;;;;16.70;99.90;;;;;;5134539;27;19922;-42
2023/06/17 03:07:36;;;;;;;;;;;16.70;99.90;;;;;;5134835;27;19908;-44
2023/06/17 03:10:02;;;;;;;;;;;16.80;99.90;;;;;;5135063;27;19908;-44
2023/06/17 03:12:28;;;;;;;;;;;16.80;99.90;;;;;;5133235;27;19917;-44
2023/06/17 03:14:53;;;;;;;;;;;16.90;99.90;;;;;;5134946;27;20010;-44
2023/06/17 03:17:19;;;;;;;;;;;16.90;99.90;;;;;;5134618;27;19960;-43
2023/06/17 03:19:44;;;;;;;;;;;16.90;99.90;;;;;;5134038;27;20376;-46
2023/06/17 03:22:10;;;;;;;;;;;16.80;99.90;;;;;;5135020;27;19912;-42
2023/06/17 03:24:35;;;;;;;;;;;16.80;99.90;;;;;;5134398;27;19920;-44
2023/06/17 03:27:01;;;;;;;;;;;16.80;99.90;;;;;;5133424;27;20350;-43
2023/06/17 03:29:26;;;;;;;;;;;16.80;99.90;;;;;;5134025;27;19915;-44
2023/06/17 03:31:56;;;;;;;;;;;16.80;99.90;;;;;;5134598;27;19908;-44
2023/06/17 03:34:22;;;;;;;;;;;16.80;99.90;;;;;;5133529;27;20362;-44
2023/06/17 03:36:49;;;;;;;;;;;16.80;99.90;;;;;;5134491;27;19945;-42
2023/06/17 03:39:14;;;;;;;;;;;16.80;99.90;;;;;;5134225;27;20353;-45
2023/06/17 03:41:40;;;;;;;;;;;16.80;99.90;;;;;;5133637;27;20073;-43
2023/06/17 03:44:05;;;;;;;;;;;16.70;99.90;;;;;;5134412;27;19917;-43
2023/06/17 03:46:31;;;;;;;;;;;16.70;99.90;;;;;;5134072;27;20307;-42
2023/06/17 03:48:57;;;;;;;;;;;16.70;99.90;;;;;;5133536;27;19945;-47
2023/06/17 03:51:22;;;;;;;;;;;16.80;99.90;;;;;;5133944;27;19907;-42
2023/06/17 03:53:48;;;;;;;;;;;16.90;99.90;;;;;;5134234;27;20410;-43
2023/06/17 03:56:13;;;;;;;;;;;16.90;99.90;;;;;;5132980;27;19915;-43
2023/06/17 03:58:39;;;;;;;;;;;16.90;99.90;;;;;;5133853;27;20421;-44
2023/06/17 04:01:06;;;;;;;;;;;16.90;99.90;;;;;;5133316;27;20392;-43
2023/06/17 04:03:34;;;;;;;;;;;17.00;99.90;;;;;;5133649;27;19916;-42
2023/06/17 04:06:00;;;;;;;;;;;17.00;99.90;;;;;;5133969;27;19907;-42
2023/06/17 04:08:27;;;;;;;;;;;16.90;99.90;;;;;;5132876;27;19908;-43
2023/06/17 04:10:52;;;;;;;;;;;16.90;99.90;;;;;;5133922;27;20331;-43
2023/06/17 04:13:18;;;;;;;;;;;16.80;99.90;;;;;;5133627;27;20468;-44
2023/06/17 04:15:46;;;;;;;;;;;16.60;99.90;;;;;;5128741;27;20328;-44
2023/06/17 04:18:12;;;;;;;;;;;16.50;99.90;;;;;;5129268;27;19996;-43
2023/06/17 04:20:38;;;;;;;;;;;16.30;99.90;;;;;;5133475;27;20354;-45
2023/06/17 04:23:04;;;;;;;;;;;16.30;99.90;;;;;;5113592;27;19912;-44
2023/06/17 04:25:32;;;;;;;;;;;16.30;99.90;;;;;;5112753;28;19994;-43
2023/06/17 04:27:58;;;;;;;;;;;16.40;99.90;;;;;;5132916;27;20251;-42
2023/06/17 04:30:25;;;;;;;;;;;16.50;99.90;;;;;;5132629;27;19914;-42
2023/06/17 04:32:50;;;;;;;;;;;16.60;99.90;;;;;;5133478;27;20376;-43
2023/06/17 04:35:18;;;;;;;;;;;16.60;99.90;;;;;;5133359;27;19962;-46
2023/06/17 04:37:53;;;;;;;;;;;16.60;99.90;;;;;;5127046;27;19923;-44
2023/06/17 04:40:20;;;;;;;;;;;16.60;99.90;;;;;;5119303;27;19912;-42
2023/06/17 04:42:47;;;;;;;;;;;16.50;99.90;;;;;;5123783;27;19919;-44
2023/06/17 04:45:12;;;;;;;;;;;16.50;99.90;;;;;;5111944;28;20372;-42
2023/06/17 04:47:38;;;;;;;;;;;16.50;99.90;;;;;;5112383;28;19908;-43
2023/06/17 04:50:04;;;;;;;;;;;16.40;99.90;;;;;;5112642;28;19915;-43
2023/06/17 04:52:31;;;;;;;;;;;16.40;99.90;;;;;;5121774;27;20385;-43
2023/06/17 04:54:56;;;;;;;;;;;16.40;99.90;;;;;;5133188;27;20362;-44
2023/06/17 04:57:22;;;;;;;;;;;16.40;99.90;;;;;;5132257;27;20142;-43
2023/06/17 04:59:48;;;;;;;;;;;16.30;99.90;;;;;;5133084;27;19908;-45
2023/06/17 05:02:13;;;;;;;;;;;16.30;99.90;;;;;;5133303;27;19914;-43
2023/06/17 05:04:39;;;;;;;;;;;16.20;99.90;;;;;;5131507;28;20052;-42
2023/06/17 05:07:05;;;;;;;;;;;16.30;99.90;;;;;;5124141;28;19911;-44
2023/06/17 05:09:30;;;;;;;;;;;16.40;99.90;;;;;;5126556;28;19918;-45
2023/06/17 05:11:56;;;;;;;;;;;16.50;99.90;;;;;;5131774;28;19908;-43
2023/06/17 05:14:21;;;;;;;;;;;16.60;99.90;;;;;;5132070;28;20388;-45
2023/06/17 05:16:46;;;;;;;;;;;16.70;99.90;;;;;;5132255;28;20354;-43
2023/06/17 05:19:12;;;;;;;;;;;16.70;99.90;;;;;;5131560;28;20010;-44
2023/06/17 05:21:37;;;;;;;;;;;16.60;99.90;;;;;;5131852;28;20354;-45
2023/06/17 05:24:03;;;;;;;;;;;16.50;99.90;;;;;;5126154;28;20018;-44
2023/06/17 05:26:28;;;;;;;;;;;16.40;99.90;;;;;;5120650;28;20427;-45
2023/06/17 05:28:54;;;;;;;;;;;16.40;99.90;;;;;;5119263;28;20354;-44
2023/06/17 05:31:20;;;;;;;;;;;16.30;99.90;;;;;;5120977;28;19934;-43
2023/06/17 05:33:45;;;;;;;;;;;16.30;99.90;;;;;;5116240;28;19907;-45
2023/06/17 05:36:11;;;;;;;;;;;16.30;99.90;;;;;;5116073;28;19920;-44
2023/06/17 05:38:36;;;;;;;;;;;16.30;99.90;;;;;;5131427;27;19907;-43
2023/06/17 05:41:02;;;;;;;;;;;16.30;99.90;;;;;;5122586;27;20398;-44
2023/06/17 05:43:27;;;;;;;;;;;16.30;99.90;;;;;;5119957;27;19988;-43
2023/06/17 05:45:53;;;;;;;;;;;16.30;99.90;;;;;;5122847;27;20278;-44
2023/06/17 05:48:18;;;;;;;;;;;16.30;99.90;;;;;;5129186;27;20291;-44
2023/06/17 05:50:44;;;;;;;;;;;16.40;99.90;;;;;;5129670;27;20218;-44
2023/06/17 05:53:09;;;;;;;;;;;16.40;99.90;;;;;;5134912;27;19916;-47
2023/06/17 05:55:35;;;;;;;;;;;16.50;99.90;;;;;;5125510;27;20018;-45
2023/06/17 05:58:00;;;;;;;;;;;16.60;99.90;;;;;;5135125;27;19919;-43
2023/06/17 06:00:26;;;;;;;;;;;16.70;99.90;;;;;;5130409;27;19919;-43
2023/06/17 06:02:51;;;;;;;;;;;16.80;99.90;;;;;;5123505;27;19915;-44
2023/06/17 06:05:17;;;;;;;;;;;16.80;99.90;;;;;;5122604;27;19920;-47
2023/06/17 06:07:43;;;;;;;;;;;16.70;99.90;;;;;;5132229;27;20278;-43
2023/06/17 06:10:09;;;;;;;;;;;16.80;99.90;;;;;;5134500;27;19915;-44
2023/06/17 06:12:35;;;;;;;;;;;16.90;99.90;;;;;;5135368;27;20385;-42
2023/06/17 06:15:01;;;;;;;;;;;16.90;99.90;;;;;;5134893;27;19908;-43
2023/06/17 06:17:26;;;;;;;;;;;16.90;99.90;;;;;;5133192;27;19922;-42
2023/06/17 06:19:52;;;;;;;;;;;17.00;99.90;;;;;;5135655;27;19915;-43
2023/06/17 06:22:17;;;;;;;;;;;16.90;99.90;;;;;;5134400;27;19907;-42
2023/06/17 06:24:43;;;;;;;;;;;16.90;99.90;;;;;;5135437;27;19957;-42
2023/06/17 06:27:09;;;;;;;;;;;16.90;99.90;;;;;;5135351;27;20253;-45
2023/06/17 06:29:34;;;;;;;;;;;16.90;99.90;;;;;;5134027;27;19922;-44
2023/06/17 06:32:00;;;;;;;;;;;16.90;99.90;;;;;;5135313;27;19911;-42
2023/06/17 06:34:25;;;;;;;;;;;16.90;99.90;;;;;;5134927;27;19907;-43
2023/06/17 06:36:50;;;;;;;;;;;17.00;99.90;;;;;;5133832;27;19938;-47
2023/06/17 06:39:16;;;;;;;;;;;17.00;99.90;;;;;;5134914;27;20243;-44
2023/06/17 06:41:42;;;;;;;;;;;17.00;99.90;;;;;;5135058;27;19951;-44
2023/06/17 06:44:07;;;;;;;;;;;17.00;99.90;;;;;;5129839;27;19926;-43
2023/06/17 06:46:33;;;;;;;;;;;16.90;99.90;;;;;;5132301;27;19907;-46
2023/06/17 06:48:58;;;;;;;;;;;16.90;99.90;;;;;;5134438;27;19911;-43
2023/06/17 06:51:24;;;;;;;;;;;16.90;99.90;;;;;;5134005;27;20135;-43
2023/06/17 06:53:50;;;;;;;;;;;16.90;99.90;;;;;;5132411;27;20285;-43
2023/06/17 06:56:15;;;;;;;;;;;17.00;99.90;;;;;;5129553;27;19998;-46
2023/06/17 06:58:41;;;;;;;;;;;17.10;99.90;;;;;;5132573;27;19908;-44
2023/06/17 07:01:06;;;;;;;;;;;17.20;99.90;;;;;;5129948;27;19911;-43
2023/06/17 07:03:32;;;;;;;;;;;17.20;99.90;;;;;;5132312;27;20278;-44
2023/06/17 07:05:57;;;;;;;;;;;17.30;99.90;;;;;;5130538;27;19937;-42
2023/06/17 07:08:26;;;;;;;;;;;17.30;99.90;;;;;;5132619;27;20329;-45
2023/06/17 07:10:51;;;;;;;;;;;17.50;99.90;;;;;;5132215;27;19941;-44
2023/06/17 07:13:17;;;;;;;;;;;17.50;99.90;;;;;;5120184;27;20362;-47
2023/06/17 07:15:43;;;;;;;;;;;17.50;99.90;;;;;;5122003;27;20369;-43
2023/06/17 07:18:09;;;;;;;;;;;17.50;99.90;;;;;;5130490;27;19968;-45
2023/06/17 07:20:35;;;;;;;;;;;17.50;99.90;;;;;;5117057;27;19915;-45
2023/06/17 07:23:01;;;;;;;;;;;17.60;99.90;;;;;;5127377;27;19911;-46
2023/06/17 07:25:26;;;;;;;;;;;17.60;99.90;;;;;;5126448;27;19922;-43
2023/06/17 07:27:52;;;;;;;;;;;17.60;99.90;;;;;;5115222;27;19912;-43
2023/06/17 07:30:17;;;;;;;;;;;17.70;99.90;;;;;;5113718;28;20389;-43
2023/06/17 07:32:43;;;;;;;;;;;17.80;99.90;;;;;;5113163;28;19937;-42
2023/06/17 07:35:08;;;;;;;;;;;17.90;99.90;;;;;;5114278;28;19912;-43
2023/06/17 07:37:33;;;;;;;;;;;17.90;99.90;;;;;;5113289;28;20357;-44
2023/06/17 07:39:59;;;;;;;;;;;18.00;99.90;;;;;;5113254;28;19913;-45
2023/06/17 07:42:24;;;;;;;;;;;18.20;99.90;;;;;;5118911;27;19969;-43
2023/06/17 07:44:50;;;;;;;;;;;18.30;99.90;;;;;;5117913;27;19923;-44
2023/06/17 07:47:16;;;;;;;;;;;18.40;99.90;;;;;;5120452;27;19911;-54
2023/06/17 07:49:41;;;;;;;;;;;18.60;99.90;;;;;;5117151;27;19999;-42
2023/06/17 07:52:07;;;;;;;;;;;18.70;99.90;;;;;;5113443;28;19908;-43
2023/06/17 07:54:35;;;;;;;;;;;18.80;99.90;;;;;;5131983;27;20402;-42
2023/06/17 07:57:02;;;;;;;;;;;18.90;99.90;;;;;;5128383;27;19907;-43
2023/06/17 07:59:28;;;;;;;;;;;18.90;99.90;;;;;;5116862;27;19907;-43
2023/06/17 08:01:54;;;;;;;;;;;18.90;99.90;;;;;;5121400;27;19952;-43
2023/06/17 08:04:19;;;;;;;;;;;18.80;99.90;;;;;;5121155;27;19926;-43
2023/06/17 08:06:45;;;;;;;;;;;18.80;99.90;;;;;;5113350;27;19918;-42
2023/06/17 08:09:12;;;;;;;;;;;18.90;99.90;;;;;;5131131;27;20307;-43
2023/06/17 08:11:37;;;;;;;;;;;19.10;99.90;;;;;;5117893;27;19919;-44
2023/06/17 08:14:03;;;;;;;;;;;19.20;99.90;;;;;;5113442;28;19908;-41
2023/06/17 08:16:28;;;;;;;;;;;19.30;99.90;;;;;;5111523;28;19973;-42
2023/06/17 08:18:54;;;;;;;;;;;19.50;99.90;;;;;;5113224;28;19935;-44
2023/06/17 08:21:19;;;;;;;;;;;19.60;99.90;;;;;;5112217;28;19908;-43
2023/06/17 08:23:45;;;;;;;;;;;19.60;99.90;;;;;;5113126;28;19919;-46
2023/06/17 08:26:11;;;;;;;;;;;19.70;99.90;;;;;;5113289;28;19912;-43
2023/06/17 08:28:38;;;;;;;;;;;19.60;99.90;;;;;;5130568;27;19907;-44
2023/06/17 08:31:03;;;;;;;;;;;19.60;99.90;;;;;;5133529;27;19918;-44
2023/06/17 08:33:29;;;;;;;;;;;19.60;99.90;;;;;;5133290;27;19907;-41
2023/06/17 08:35:54;;;;;;;;;;;19.70;99.90;;;;;;5132674;27;19912;-43
2023/06/17 08:38:20;;;;;;;;;;;19.70;99.90;;;;;;5133014;27;19919;-43
2023/06/17 08:40:45;;;;;;;;;;;19.70;99.90;;;;;;5124206;27;19937;-44
2023/06/17 08:43:13;;;;;;;;;;;19.70;99.90;;;;;;5114697;27;19911;-42
2023/06/17 08:45:39;;;;;;;;;;;19.80;99.90;;;;;;5115896;27;19911;-44
2023/06/17 08:48:05;;;;;;;;;;;19.90;99.90;;;;;;5116543;27;19921;-43
2023/06/17 08:50:32;;;;;;;;;;;20.00;99.90;;;;;;5121044;27;19998;-43
2023/06/17 08:52:57;;;;;;;;;;;20.10;99.90;;;;;;5126983;27;19914;-44
2023/06/17 08:55:23;;;;;;;;;;;20.10;99.90;;;;;;5133747;27;19911;-44
2023/06/17 08:57:52;;;;;;;;;;;20.10;99.90;;;;;;5133010;27;19912;-43
2023/06/17 09:00:18;;;;;;;;;;;20.20;99.90;;;;;;5133535;27;20362;-42
2023/06/17 09:02:45;;;;;;;;;;;20.20;99.90;;;;;;5133923;27;19907;-44
2023/06/17 09:05:10;;;;;;;;;;;20.30;99.90;;;;;;5127505;27;19919;-45
2023/06/17 09:07:37;;;;;;;;;;;20.30;99.90;;;;;;5114292;27;19953;-43
2023/06/17 09:10:06;;;;;;;;;;;20.30;99.90;;;;;;5115214;28;19964;-45
2023/06/17 09:12:37;;;;;;;;;;;20.40;99.90;;;;;;5118979;28;19918;-44
2023/06/17 09:15:04;;;;;;;;;;;20.40;99.90;;;;;;5125789;28;20019;-45
2023/06/17 09:17:30;;;;;;;;;;;20.60;99.90;;;;;;5130224;28;20277;-42
2023/06/17 09:19:56;;;;;;;;;;;20.70;99.90;;;;;;5132681;28;19911;-43
2023/06/17 09:22:24;;;;;;;;;;;20.80;99.90;;;;;;5132470;28;19952;-42
2023/06/17 09:24:56;;;;;;;;;;;21.00;99.90;;;;;;5126292;28;20393;-42
2023/06/17 09:27:22;;;;;;;;;;;21.10;99.90;;;;;;5132398;28;20397;-44
2023/06/17 09:30:05;;;;;;;;;;;21.10;99.90;;;;;;5132683;28;19908;-44
2023/06/17 09:32:37;;;;;;;;;;;21.10;99.90;;;;;;5131095;28;19919;-43
2023/06/17 09:35:02;;;;;;;;;;;21.00;99.90;;;;;;5130812;28;19912;-44
2023/06/17 09:37:28;;;;;;;;;;;21.10;99.90;;;;;;5131162;28;19926;-43
2023/06/17 09:39:53;;;;;;;;;;;21.10;99.90;;;;;;5131657;28;20010;-44
2023/06/17 09:42:19;;;;;;;;;;;21.20;99.90;;;;;;5116646;28;19914;-44
2023/06/17 09:44:46;;;;;;;;;;;21.30;99.90;;;;;;5113457;28;20389;-45
2023/06/17 09:47:12;;;;;;;;;;;21.30;99.90;;;;;;5127304;28;19911;-44
2023/06/17 09:49:38;;;;;;;;;;;21.40;99.90;;;;;;5129491;28;20239;-43
2023/06/17 09:52:05;;;;;;;;;;;21.50;99.90;;;;;;5131697;28;19911;-42
2023/06/17 09:54:31;;;;;;;;;;;21.50;99.80;;;;;;5130993;28;19907;-43
2023/06/17 09:56:58;;;;;;;;;;;21.70;99.90;;;;;;5125009;28;19994;-44
2023/06/17 09:59:24;;;;;;;;;;;21.80;99.50;;;;;;5113909;28;19915;-48
2023/06/17 10:01:50;;;;;;;;;;;21.80;99.90;;;;;;5112250;28;19907;-44
2023/06/17 10:04:16;;;;;;;;;;;21.90;99.50;;;;;;5112439;28;20014;-46
2023/06/17 10:06:45;;;;;;;;;;;22.00;99.60;;;;;;5112099;28;19943;-43
2023/06/17 10:09:11;;;;;;;;;;;22.10;99.50;;;;;;5112565;28;19949;-48
2023/06/17 10:11:38;;;;;;;;;;;22.20;98.80;;;;;;5112382;28;20408;-43
2023/06/17 10:14:07;;;;;;;;;;;22.30;98.20;;;;;;5112012;28;19926;-44
2023/06/17 10:16:34;;;;;;;;;;;22.40;97.70;;;;;;5112250;28;20338;-43
2023/06/17 10:19:01;;;;;;;;;;;22.50;97.50;;;;;;5112551;28;20010;-43
2023/06/17 10:21:28;;;;;;;;;;;22.50;97.10;;;;;;5114291;28;19908;-43
2023/06/17 10:23:54;;;;;;;;;;;22.60;96.10;;;;;;5116068;28;19916;-44
2023/06/17 10:26:21;;;;;;;;;;;22.60;95.80;;;;;;5115877;28;19930;-45
2023/06/17 10:28:52;;;;;;;;;;;22.70;95.80;;;;;;5119009;27;19911;-42
2023/06/17 10:31:18;;;;;;;;;;;22.70;96.10;;;;;;5136485;27;19908;-43
2023/06/17 10:33:45;;;;;;;;;;;22.80;96.10;;;;;;5136537;27;19915;-43
2023/06/17 10:36:14;;;;;;;;;;;22.90;96.60;;;;;;5135586;27;19907;-44
2023/06/17 10:38:39;;;;;;;;;;;23.00;95.80;;;;;;5134554;27;20014;-45
2023/06/17 10:41:05;;;;;;;;;;;23.10;94.20;;;;;;5121925;27;20408;-42
2023/06/17 10:43:37;;;;;;;;;;;23.30;94.90;;;;;;5124215;27;19953;-44
2023/06/17 10:46:02;;;;;;;;;;;23.40;94.40;;;;;;5115860;28;20085;-46
2023/06/17 10:48:29;;;;;;;;;;;23.50;93.90;;;;;;5115438;28;20466;-45
2023/06/17 10:51:00;;;;;;;;;;;23.50;92.80;;;;;;5115092;28;19908;-45
2023/06/17 10:53:29;;;;;;;;;;;23.60;92.90;;;;;;5132116;27;19912;-47
2023/06/17 10:55:56;;;;;;;;;;;23.60;92.40;;;;;;5130327;27;19927;-44
2023/06/17 10:58:22;;;;;;;;;;;23.70;92.50;;;;;;5130529;27;19918;-44
2023/06/17 11:00:56;;;;;;;;;;;23.80;92.80;;;;;;5133358;27;19911;-43
2023/06/17 11:03:22;;;;;;;;;;;23.90;92.20;;;;;;5130083;27;19915;-44
2023/06/17 11:05:50;;;;;;;;;;;24.00;90.90;;;;;;5131708;27;19998;-44
2023/06/17 11:08:15;;;;;;;;;;;24.10;90.60;;;;;;5135261;27;19911;-46
2023/06/17 11:10:41;;;;;;;;;;;24.30;91.50;;;;;;5134136;27;19932;-44
2023/06/17 11:13:06;;;;;;;;;;;24.40;90.60;;;;;;5134786;27;19911;-43
2023/06/17 11:15:32;;;;;;;;;;;24.50;91.30;;;;;;5133619;27;19907;-45
2023/06/17 11:18:03;;;;;;;;;;;24.60;89.50;;;;;;5134751;27;19956;-45
2023/06/17 11:20:32;;;;;;;;;;;24.60;87.80;;;;;;5132448;27;19908;-44
2023/06/17 11:22:58;;;;;;;;;;;24.70;91.00;;;;;;5135359;27;19953;-43
2023/06/17 11:25:23;;;;;;;;;;;24.70;90.40;;;;;;5135100;27;20282;-43
2023/06/17 11:27:50;;;;;;;;;;;24.80;88.80;;;;;;5135299;27;20350;-44
2023/06/17 11:30:15;;;;;;;;;;;24.90;90.00;;;;;;5127854;27;19938;-51
2023/06/17 11:32:41;;;;;;;;;;;24.90;89.30;;;;;;5119459;27;19908;-45
2023/06/17 11:35:08;;;;;;;;;;;25.00;87.70;;;;;;5134778;27;19922;-45
2023/06/17 11:37:34;;;;;;;;;;;25.10;88.00;;;;;;5133096;27;20342;-45
2023/06/17 11:40:00;;;;;;;;;;;25.10;84.90;;;;;;5133768;27;19911;-43
2023/06/17 11:42:25;;;;;;;;;;;25.20;86.10;;;;;;5133352;27;19960;-46
2023/06/17 11:44:53;;;;;;;;;;;25.20;86.00;;;;;;5133505;27;21277;-44
2023/06/17 11:47:31;;;;;;;;;;;25.20;83.70;;;;;;5128888;27;19998;-44
2023/06/17 11:49:57;;;;;;;;;;;25.30;84.00;;;;;;5114949;27;20343;-44
2023/06/17 11:52:22;;;;;;;;;;;25.50;83.40;;;;;;5114740;27;19947;-45
2023/06/17 11:54:48;;;;;;;;;;;25.50;83.60;;;;;;5115064;28;19914;-46
2023/06/17 11:57:21;;;;;;;;;;;25.50;83.60;;;;;;5117284;27;20270;-46
2023/06/17 11:59:46;;;;;;;;;;;25.70;83.70;;;;;;5114501;28;20334;-43
2023/06/17 12:02:12;;;;;;;;;;;25.70;84.30;;;;;;5120784;27;19908;-44
2023/06/17 12:04:38;;;;;;;;;;;25.70;84.50;;;;;;5130301;27;20285;-42
2023/06/17 12:07:05;;;;;;;;;;;25.80;85.50;;;;;;5131690;27;19918;-44
2023/06/17 12:09:34;;;;;;;;;;;25.90;84.10;;;;;;5133046;27;20409;-44
2023/06/17 12:12:01;;;;;;;;;;;26.10;84.10;;;;;;5133714;27;20346;-44
2023/06/17 12:14:27;;;;;;;;;;;26.20;83.10;;;;;;5134024;27;19907;-43
2023/06/17 12:16:53;;;;;;;;;;;26.20;84.90;;;;;;5125539;27;20014;-45
2023/06/17 12:19:22;;;;;;;;;;;26.30;80.90;;;;;;5116806;27;19918;-43
2023/06/17 12:21:48;;;;;;;;;;;26.30;80.80;;;;;;5120568;27;19908;-43
2023/06/17 12:24:14;;;;;;;;;;;26.30;81.80;;;;;;5118893;27;19919;-47
2023/06/17 12:26:39;;;;;;;;;;;26.40;83.00;;;;;;5129895;27;19907;-43
2023/06/17 12:29:05;;;;;;;;;;;26.50;81.00;;;;;;5115921;27;19918;-45
2023/06/17 12:31:30;;;;;;;;;;;26.60;80.40;;;;;;5123828;27;19972;-44
2023/06/17 12:33:56;;;;;;;;;;;26.70;82.00;;;;;;5114358;28;20236;-46
2023/06/17 12:36:21;;;;;;;;;;;27.00;82.30;;;;;;5113497;28;20006;-44
2023/06/17 12:38:48;;;;;;;;;;;27.20;80.10;;;;;;5114245;28;19919;-44
2023/06/17 12:41:13;;;;;;;;;;;27.30;78.10;;;;;;5114037;28;20403;-44
2023/06/17 12:43:39;;;;;;;;;;;27.50;79.10;;;;;;5112727;28;19907;-45
2023/06/17 12:46:05;;;;;;;;;;;27.70;76.20;;;;;;5126581;27;19956;-44
2023/06/17 12:48:33;;;;;;;;;;;27.80;75.80;;;;;;5126322;27;20390;-45
2023/06/17 12:50:59;;;;;;;;;;;27.90;76.30;;;;;;5129038;27;19915;-45
2023/06/17 12:53:26;;;;;;;;;;;28.20;78.10;;;;;;5114229;28;19912;-45
2023/06/17 12:55:55;;;;;;;;;;;28.30;75.90;;;;;;5115630;27;20415;-46
2023/06/17 12:58:20;;;;;;;;;;;28.40;73.70;;;;;;5121727;27;20259;-47
2023/06/17 13:00:46;;;;;;;;;;;28.50;73.10;;;;;;5121515;27;19911;-45
2023/06/17 13:03:12;;;;;;;;;;;28.70;75.90;;;;;;5114264;27;19908;-45
2023/06/17 13:05:37;;;;;;;;;;;29.00;73.20;;;;;;5123832;27;19928;-44
2023/06/17 13:08:03;;;;;;;;;;;29.10;72.20;;;;;;5113914;28;19935;-46
2023/06/17 13:10:29;;;;;;;;;;;29.30;72.40;;;;;;5117929;28;20029;-45
2023/06/17 13:12:54;;;;;;;;;;;29.50;71.50;;;;;;5131602;28;20088;-46
2023/06/17 13:15:20;;;;;;;;;;;29.60;69.00;;;;;;5114639;28;19957;-46
2023/06/17 13:17:45;;;;;;;;;;;29.70;69.20;;;;;;5120265;28;19912;-45
2023/06/17 13:20:11;;;;;;;;;;;29.70;67.90;;;;;;5133200;28;19911;-45
2023/06/17 13:22:36;;;;;;;;;;;29.90;70.70;;;;;;5113989;28;20338;-45
2023/06/17 13:25:06;;;;;;;;;;;30.10;66.90;;;;;;5120349;28;19984;-45
2023/06/17 13:27:32;;;;;;;;;;;30.10;66.30;;;;;;5133903;28;20273;-44
2023/06/17 13:29:57;;;;;;;;;;;30.30;67.70;;;;;;5118322;28;20381;-43
2023/06/17 13:32:23;;;;;;;;;;;30.60;68.30;;;;;;5116122;28;19911;-46
2023/06/17 13:34:48;;;;;;;;;;;30.80;67.30;;;;;;5126381;28;19951;-43
2023/06/17 13:37:14;;;;;;;;;;;30.90;65.20;;;;;;5115358;28;20247;-44
2023/06/17 13:39:40;;;;;;;;;;;31.00;67.00;;;;;;5112081;28;19995;-43
2023/06/17 13:42:09;;;;;;;;;;;31.00;66.20;;;;;;5124302;28;19964;-45
2023/06/17 13:44:34;;;;;;;;;;;31.20;67.00;;;;;;5121544;28;19969;-42
2023/06/17 13:47:00;;;;;;;;;;;31.50;67.10;;;;;;5112089;28;19908;-45
2023/06/17 13:49:26;;;;;;;;;;;31.80;66.20;;;;;;5113130;28;19916;-44
2023/06/17 13:51:52;;;;;;;;;;;31.90;65.50;;;;;;5113022;28;20033;-45
2023/06/17 13:54:19;;;;;;;;;;;32.20;64.60;;;;;;5122335;28;20044;-45
2023/06/17 13:56:48;;;;;;;;;;;32.40;62.00;;;;;;5136393;27;20002;-45
2023/06/17 13:59:14;;;;;;;;;;;32.50;61.60;;;;;;5133815;27;19918;-47
2023/06/17 14:01:39;;;;;;;;;;;32.70;61.40;;;;;;5137899;27;19907;-45
2023/06/17 14:04:05;;;;;;;;;;;32.70;61.50;;;;;;5135682;27;19929;-45
2023/06/17 14:06:34;;;;;;;;;;;32.80;59.60;;;;;;5125785;27;19955;-49
2023/06/17 14:09:03;;;;;;;;;;;33.00;60.80;;;;;;5132736;27;19911;-44
2023/06/17 14:11:29;;;;;;;;;;;33.20;60.80;;;;;;5132729;27;19919;-44